AirNav  
 
 1028 users online  

2PS3 Mathna Airport
York Springs, Pennsylvania, USA

GOING TO YORK SPRINGS?


FAA INFORMATION EFFECTIVE 01 FEBRUARY 2018

Location

FAA Identifier: 2PS3
Lat/Long: 40-01-00.3400N / 077-02-28.9230W
40-01.005667N / 077-02.482050W
40.0167611 / -77.0413675
(estimated)
Elevation: 490 ft. / 149 m (estimated)
Variation: 10W (1980)
From city: 3 miles E of YORK SPRINGS, PA
Time zone: UTC -5 (UTC -4 during Daylight Saving Time)
Zip code: 17372

Airport Operations

Airport use: Private use. Permission required prior to landing
Activation date: 12/1986
Control tower: no
ARTCC: NEW YORK CENTER
FSS: WILLIAMSPORT FLIGHT SERVICE STATION
Attendance: UNATNDD
Wind indicator: yes
Segmented circle: no

Airport Communications

WX ASOS at THV (10 nm SE): 119.275 (717-792-5529)
WX ASOS at CXY (15 nm NE): PHONE 717-770-0880
WX ASOS at MDT (17 nm NE): PHONE 717-944-1372

Nearby radio navigation aids

VOR radial/distance  VOR name  Freq  Var
HARr186/17.2HARRISBURG VORTAC112.5010W
EMIr003/31.4WESTMINSTER VORTAC117.9008W
LRPr269/35.0LANCASTER VOR/DME117.3009W
RAVr223/38.0RAVINE VORTAC114.6011W
FDKr031/(39.4)FREDERICK VOR109.0008W

 
NDB name  Hdg/Dist  Freq  Var  ID
LATLE201/9.821911WCX -.-. -..-
BELLGROVE232/33.732810WBZJ -... --.. .---

Airport Services

Runway Information

Runway 6/24

Dimensions: 1800 x 100 ft. / 549 x 30 m
Surface: turf
Runway edge markings: RY 06/24 MKD WITH ORANGE CONES.
RUNWAY 6  RUNWAY 24
Traffic pattern: leftleft
Obstructions: 22 ft. tree, 227 ft. from runway
06/24 VILLAGE 2500' FM EAST END OF RWY.
none

Airport Ownership and Management from official FAA records

Ownership: Privately-owned
Owner: GARY G. MATHNA
495 PONDTOWN RD
DILLSBURG, PA 17019
Phone 717-432-8250
Manager: GARY G. MATHNA
495 PONDTOWN ROAD
DILLSBURG, PA 17019
Phone 717-432-8250

Airport Operational Statistics

Aircraft based on the field: 1
Single engine airplanes: 1
    

Instrument Procedures

There are no published instrument procedures at 2PS3.

Some nearby airports with instrument procedures:

KTHV - York Airport (10 nm SE)
N94 - Carlisle Airport (12 nm NW)
KCXY - Capital City Airport (15 nm NE)
W05 - Gettysburg Regional Airport (15 nm SW)
KMDT - Harrisburg International Airport (17 nm NE)
 
Loc | Ops | Rwys | IFR | FBO | Links
Com | Nav | Svcs | Stats | Notes

AirNav Hotels Sweepstakes
 
Area around 2PS3 (Mathna Airport)
 
Road maps at: MapQuest Bing Google
 
Aerial photo
No photo
 
Sectional chart

 
Airport distance calculator
Flying to Mathna Airport? Find the distance to fly.

From to 2PS3

Sunrise and sunset
Times for 18-Feb-2018
 Local
(UTC-5)
 Zulu
(UTC)
Morning civil twilight06:3111:31
Sunrise06:5811:58
Sunset17:4622:46
Evening civil twilight18:1423:14

Current date and time
Zulu (UTC)  18-Feb-2018 20:58:04
Local (UTC-5)  18-Feb-2018 15:58:04
 
METAR
KTHV 
9nm SE 
182053Z AUTO 28006KT 10SM CLR 07/M02 A3039 RMK AO2 SLP298 T00671022 53001
KCXY 
15nm NE 
181956Z VRB06KT 10SM CLR 07/M03 A3039 RMK AO2 SLP296 T00721028
KMDT 
17nm NE 
181956Z 28006KT 10SM SCT045 BKN250 06/M03 A3039 RMK AO2 SLP293 T00611033 $
TAF
KMDT 
17nm NE 
181727Z 1818/1918 28004KT P6SM SCT040 BKN050 BKN230 FM190000 VRB03KT P6SM SCT120 FM191030 14004KT P6SM BKN150 WS020/19035KT FM191300 14003KT P6SM OVC050
NOTAMs
Click for the latest NOTAMs
NOTAMs are issued by the DoD/FAA and will open in a separate window not controlled by AirNav.

 

 
 

Would you like to see your business listed on this page?

 If your business provides an interesting product or service to pilots, flight crews, aircraft, or users of the Mathna Airport, you should consider listing it here.  To start the listing process, click on the button below
 
Add a business
 

Other Pages about Mathna Airport

Update a link
 
Copyright © AirNav, LLC. All rights reserved. Privacy Policy  Contact